createdAt,value
2023-01-28T00:01:05.384Z,1.52
2023-01-28T00:03:31.924Z,1.40
2023-01-28T00:06:07.765Z,1.85
2023-01-28T00:08:34.439Z,1.85
2023-01-28T00:11:02.075Z,1.67
2023-01-28T00:13:29.657Z,1.70
2023-01-28T00:15:57.710Z,1.88
2023-01-28T00:18:25.289Z,1.90
2023-01-28T00:20:57.661Z,1.70
2023-01-28T00:23:24.668Z,1.25
2023-01-28T00:25:51.258Z,1.15
2023-01-28T00:28:17.797Z,1.10
2023-01-28T00:30:44.348Z,1.23
2023-01-28T00:33:10.921Z,1.13
2023-01-28T00:35:37.399Z,1.90
2023-01-28T00:38:04.270Z,1.60
2023-01-28T00:40:31.500Z,1.20
2023-01-28T00:42:58.177Z,1.30
2023-01-28T00:45:24.743Z,1.73
2023-01-28T00:47:51.280Z,1.38
2023-01-28T00:50:17.863Z,1.65
2023-01-28T00:52:44.622Z,1.33
2023-01-28T00:55:11.089Z,1.42
2023-01-28T00:57:37.636Z,1.48
2023-01-28T01:00:05.529Z,1.50
2023-01-28T01:02:32.782Z,1.63
2023-01-28T01:04:59.504Z,1.58
2023-01-28T01:07:32.360Z,1.92
2023-01-28T01:10:02.655Z,1.65
2023-01-28T01:12:29.559Z,1.90
2023-01-28T01:14:57.256Z,1.70
2023-01-28T01:17:23.824Z,2.05
2023-01-28T01:19:50.338Z,1.67
2023-01-28T01:22:17.008Z,1.88
2023-01-28T01:24:43.563Z,2.03
2023-01-28T01:27:10.098Z,1.50
2023-01-28T01:29:36.835Z,1.60
2023-01-28T01:32:03.605Z,1.35
2023-01-28T01:34:30.176Z,1.38
2023-01-28T01:36:56.733Z,1.40
2023-01-28T01:39:23.333Z,1.38
2023-01-28T01:41:49.838Z,1.52
2023-01-28T01:47:17.465Z,1.50
2023-01-28T01:49:44.332Z,1.80
2023-01-28T01:52:15.825Z,1.52
2023-01-28T01:54:44.789Z,1.50
2023-01-28T01:57:17.029Z,1.50
2023-01-28T01:59:44.617Z,1.77
2023-01-28T02:02:12.818Z,2.00
2023-01-28T02:04:41.476Z,1.48
2023-01-28T02:07:13.138Z,1.30
2023-01-28T02:09:41.450Z,1.45
2023-01-28T02:12:21.961Z,1.52
2023-01-28T02:14:53.485Z,1.52
2023-01-28T02:17:20.605Z,1.35
2023-01-28T02:19:54.998Z,1.38
2023-01-28T02:22:46.129Z,1.27
2023-01-28T02:25:26.814Z,1.50
2023-01-28T02:28:12.932Z,1.30
2023-01-28T02:30:47.008Z,1.50
2023-01-28T02:33:20.655Z,1.25
2023-01-28T02:35:53.339Z,1.33
2023-01-28T02:38:37.218Z,1.27
2023-01-28T02:41:18.030Z,1.90
2023-01-28T02:43:46.631Z,1.40
2023-01-28T02:46:52.545Z,1.30
2023-01-28T02:49:40.650Z,1.52
2023-01-28T02:52:57.929Z,1.70
2023-01-28T02:55:43.531Z,1.50
2023-01-28T02:58:44.963Z,1.60
2023-01-28T03:01:31.373Z,2.00
2023-01-28T03:04:24.646Z,1.73
2023-01-28T03:06:55.979Z,1.70
2023-01-28T03:09:27.240Z,1.80
2023-01-28T03:12:19.229Z,1.80
2023-01-28T03:15:09.579Z,1.90
2023-01-28T03:18:02.978Z,1.60
2023-01-28T03:21:01.980Z,1.80
2023-01-28T03:23:54.366Z,1.70
2023-01-28T03:26:42.333Z,1.60
2023-01-28T03:29:31.201Z,1.50
2023-01-28T03:32:18.100Z,1.58
2023-01-28T03:35:04.783Z,1.65
2023-01-28T03:37:33.523Z,1.60
2023-01-28T03:40:07.598Z,1.73
2023-01-28T03:42:34.022Z,5.47
2023-01-28T03:45:04.100Z,1.52
2023-01-28T03:47:32.081Z,1.80
2023-01-28T03:50:01.703Z,1.85
2023-01-28T03:52:33.143Z,1.55
2023-01-28T03:55:00.862Z,1.75
2023-01-28T03:57:28.242Z,2.00
2023-01-28T03:59:54.855Z,1.88
2023-01-28T04:02:23.073Z,2.38
2023-01-28T04:04:50.389Z,1.42
2023-01-28T04:07:17.186Z,2.03
2023-01-28T04:09:43.623Z,2.10
2023-01-28T04:12:10.753Z,1.60
2023-01-28T04:14:37.232Z,1.65
2023-01-28T04:17:03.609Z,2.13
2023-01-28T04:19:31.680Z,1.90
2023-01-28T04:21:58.119Z,2.00
2023-01-28T04:24:24.684Z,1.73
2023-01-28T04:26:51.159Z,2.17
2023-01-28T04:29:17.539Z,2.08
2023-01-28T04:31:43.984Z,2.30
2023-01-28T04:34:10.457Z,2.28
2023-01-28T04:36:36.892Z,2.47
2023-01-28T04:39:03.881Z,2.38
2023-01-28T04:41:30.346Z,2.45
2023-01-28T04:43:56.843Z,2.60
2023-01-28T04:46:23.247Z,3.10
2023-01-28T04:48:49.715Z,3.00
2023-01-28T04:51:16.183Z,3.30
2023-01-28T04:53:42.574Z,2.50
2023-01-28T04:56:08.933Z,3.28
2023-01-28T04:58:35.332Z,3.33
2023-01-28T05:01:01.864Z,3.20
2023-01-28T05:03:28.458Z,2.97
2023-01-28T05:05:54.881Z,3.13
2023-01-28T05:08:21.457Z,2.60
2023-01-28T05:10:48.159Z,2.90
2023-01-28T05:13:14.690Z,2.78
2023-01-28T05:15:41.172Z,3.25
2023-01-28T05:18:07.598Z,2.88
2023-01-28T05:20:34.005Z,3.00
2023-01-28T05:23:00.441Z,3.20
2023-01-28T05:25:27.661Z,2.92
2023-01-28T05:27:54.294Z,2.75
2023-01-28T05:30:21.517Z,3.15
2023-01-28T05:32:48.060Z,3.40
2023-01-28T05:35:15.010Z,2.60
2023-01-28T05:37:41.686Z,2.70
2023-01-28T05:40:08.893Z,2.63
2023-01-28T05:42:35.261Z,2.53
2023-01-28T05:45:01.711Z,3.00
2023-01-28T05:47:28.218Z,3.00
2023-01-28T05:49:54.705Z,2.60
2023-01-28T05:52:21.081Z,2.70
2023-01-28T05:54:48.292Z,2.60
2023-01-28T05:57:14.827Z,3.03
2023-01-28T05:59:41.273Z,3.00
2023-01-28T06:02:07.762Z,2.80
2023-01-28T06:04:34.283Z,3.10
2023-01-28T06:07:00.741Z,2.70
2023-01-28T06:09:27.166Z,3.10
2023-01-28T06:11:53.540Z,2.63
2023-01-28T06:14:19.909Z,3.22
2023-01-28T06:16:46.405Z,3.20
2023-01-28T06:19:12.871Z,2.75
2023-01-28T06:21:39.302Z,2.95
2023-01-28T06:24:05.894Z,2.88
2023-01-28T06:26:32.342Z,3.38
2023-01-28T06:28:58.741Z,2.95
2023-01-28T06:31:25.185Z,3.00
2023-01-28T06:33:51.608Z,3.15
2023-01-28T06:36:18.067Z,2.75
2023-01-28T06:38:44.627Z,2.58
2023-01-28T06:41:11.082Z,2.95
2023-01-28T06:43:37.501Z,3.33
2023-01-28T06:46:04.067Z,3.25
2023-01-28T06:48:30.618Z,3.00
2023-01-28T06:50:57.084Z,3.08
2023-01-28T06:53:23.484Z,3.13
2023-01-28T06:55:49.998Z,3.20
2023-01-28T06:58:16.857Z,2.80
2023-01-28T07:00:43.331Z,3.28
2023-01-28T07:03:09.819Z,2.60
2023-01-28T07:05:36.226Z,3.13
2023-01-28T07:08:02.860Z,2.55
2023-01-28T07:10:29.859Z,3.65
2023-01-28T07:12:56.324Z,2.88
2023-01-28T07:15:22.765Z,3.67
2023-01-28T07:17:49.156Z,4.00
2023-01-28T07:20:16.159Z,3.45
2023-01-28T07:22:44.125Z,3.92
2023-01-28T07:25:12.320Z,3.80
2023-01-28T07:27:38.929Z,3.10
2023-01-28T07:30:05.853Z,3.45
2023-01-28T07:32:32.287Z,3.40
2023-01-28T07:34:58.771Z,3.40
2023-01-28T07:37:25.234Z,3.13
2023-01-28T07:39:52.119Z,3.17
2023-01-28T07:42:18.588Z,3.10
2023-01-28T07:44:45.041Z,3.45
2023-01-28T07:47:12.064Z,3.05
2023-01-28T07:49:41.295Z,2.80
2023-01-28T07:52:08.655Z,2.85
2023-01-28T07:54:35.133Z,3.30
2023-01-28T07:57:01.777Z,2.63
2023-01-28T07:59:28.331Z,3.00
2023-01-28T08:01:55.168Z,3.83
2023-01-28T08:04:22.128Z,4.15
2023-01-28T08:06:48.676Z,3.47
2023-01-28T08:09:15.136Z,3.60
2023-01-28T08:11:42.343Z,3.95
2023-01-28T08:14:10.698Z,3.45
2023-01-28T08:16:37.151Z,4.22
2023-01-28T08:19:03.802Z,4.63
2023-01-28T08:21:30.370Z,3.78
2023-01-28T08:23:56.895Z,4.20
2023-01-28T08:26:23.660Z,3.97
2023-01-28T08:28:51.497Z,5.68
2023-01-28T08:31:18.221Z,4.35
2023-01-28T08:33:44.677Z,5.63
2023-01-28T08:36:11.151Z,5.00
2023-01-28T08:38:37.548Z,6.97
2023-01-28T08:41:04.090Z,4.75
2023-01-28T08:43:30.519Z,5.35
2023-01-28T08:45:57.387Z,6.05
2023-01-28T08:48:23.867Z,4.00
2023-01-28T08:50:50.881Z,5.22
2023-01-28T08:53:19.792Z,4.50
2023-01-28T08:55:47.107Z,5.05
2023-01-28T08:58:17.161Z,4.82
2023-01-28T09:00:44.652Z,5.05
2023-01-28T09:03:11.224Z,5.03
2023-01-28T09:05:38.096Z,5.38
2023-01-28T09:08:07.264Z,4.22
2023-01-28T09:10:33.873Z,4.45
2023-01-28T09:13:05.447Z,4.30
2023-01-28T09:15:32.634Z,3.63
2023-01-28T09:17:59.356Z,3.97
2023-01-28T09:20:26.446Z,3.88
2023-01-28T09:22:53.150Z,3.75
2023-01-28T09:25:19.831Z,3.63
2023-01-28T09:27:46.248Z,3.28
2023-01-28T09:30:14.234Z,3.97
2023-01-28T09:32:40.924Z,3.30
2023-01-28T09:35:07.626Z,3.28
2023-01-28T09:37:34.048Z,2.78
2023-01-28T09:40:00.462Z,2.85
2023-01-28T09:42:55.105Z,3.38
2023-01-28T09:45:41.588Z,3.00
2023-01-28T09:48:33.784Z,2.90
2023-01-28T09:51:01.699Z,2.88
2023-01-28T09:53:33.700Z,2.40
2023-01-28T09:56:08.383Z,2.30
2023-01-28T09:58:34.988Z,2.10
2023-01-28T10:01:11.368Z,2.97
2023-01-28T10:04:00.472Z,2.10
2023-01-28T10:06:26.794Z,2.00
2023-01-28T10:09:11.824Z,1.70
2023-01-28T10:14:07.575Z,1.80
2023-01-28T10:16:46.303Z,1.90
2023-01-28T10:19:30.666Z,1.27
2023-01-28T10:22:07.585Z,1.67
2023-01-28T10:24:47.430Z,1.95
2023-01-28T10:27:23.265Z,1.40
2023-01-28T10:29:50.668Z,1.80
2023-01-28T10:32:23.175Z,1.63
2023-01-28T10:34:51.799Z,1.70
2023-01-28T10:37:18.595Z,1.63
2023-01-28T10:39:45.817Z,1.50
2023-01-28T10:42:26.434Z,1.92
2023-01-28T10:44:56.641Z,1.58
2023-01-28T10:47:32.912Z,1.83
2023-01-28T10:50:01.315Z,1.42
2023-01-28T10:52:27.808Z,1.10
2023-01-28T10:55:05.751Z,1.08
2023-01-28T10:57:35.210Z,1.45
2023-01-28T11:00:36.874Z,1.50
2023-01-28T11:03:03.954Z,1.50
2023-01-28T11:05:31.478Z,1.20
2023-01-28T11:08:15.402Z,1.08
2023-01-28T11:10:43.359Z,1.02
2023-01-28T11:13:19.689Z,1.30
2023-01-28T11:15:48.816Z,0.90
2023-01-28T11:18:26.726Z,1.00
2023-01-28T11:20:59.233Z,0.82
2023-01-28T11:23:29.525Z,0.80
2023-01-28T11:26:02.459Z,0.73
2023-01-28T11:28:28.958Z,0.60
2023-01-28T11:30:58.784Z,0.60
2023-01-28T11:33:32.530Z,0.63
2023-01-28T11:36:24.506Z,0.77
2023-01-28T11:39:00.179Z,1.00
2023-01-28T11:41:30.903Z,1.25
2023-01-28T11:43:58.920Z,1.30
2023-01-28T11:46:51.948Z,1.20
2023-01-28T11:49:55.916Z,0.80
2023-01-28T11:53:04.398Z,1.10
2023-01-28T11:56:04.774Z,1.15
2023-01-28T11:58:47.050Z,0.80
2023-01-28T12:01:41.071Z,0.88
2023-01-28T12:04:37.593Z,0.90
2023-01-28T12:07:41.878Z,0.60
2023-01-28T12:10:22.641Z,0.80
2023-01-28T12:13:04.232Z,0.73
2023-01-28T12:15:49.865Z,0.50
2023-01-28T12:18:32.567Z,0.77
2023-01-28T12:21:08.243Z,0.88
2023-01-28T12:23:34.607Z,0.60
2023-01-28T12:26:23.906Z,0.68
2023-01-28T12:29:05.565Z,0.70
2023-01-28T12:31:45.294Z,0.70
2023-01-28T12:34:38.788Z,0.80
2023-01-28T12:37:20.685Z,0.60
2023-01-28T12:40:33.688Z,0.47
2023-01-28T12:44:01.885Z,1.08
2023-01-28T12:46:46.834Z,0.52
2023-01-28T12:49:37.980Z,0.50
2023-01-28T12:52:16.385Z,0.60
2023-01-28T12:54:58.356Z,0.63
2023-01-28T12:57:28.236Z,0.68
2023-01-28T13:00:06.342Z,0.90
2023-01-28T13:02:40.577Z,0.60
2023-01-28T13:05:11.457Z,0.45
2023-01-28T13:08:02.993Z,0.40
2023-01-28T13:10:39.070Z,0.28
2023-01-28T13:13:06.593Z,0.50
2023-01-28T13:15:40.651Z,0.50
2023-01-28T13:18:07.019Z,0.50
2023-01-28T13:20:49.788Z,0.40
2023-01-28T13:23:39.715Z,0.80
2023-01-28T13:26:11.170Z,0.60
2023-01-28T13:28:37.980Z,0.50
2023-01-28T13:31:09.717Z,0.40
2023-01-28T13:33:39.056Z,0.88
2023-01-28T13:36:34.273Z,0.60
2023-01-28T13:41:42.830Z,0.73
2023-01-28T13:44:19.421Z,0.60
2023-01-28T13:46:45.900Z,0.90
2023-01-28T13:49:21.159Z,0.63
2023-01-28T13:51:59.003Z,0.65
2023-01-28T13:54:28.551Z,0.63
2023-01-28T13:57:01.055Z,0.70
2023-01-28T13:59:56.979Z,0.90
2023-01-28T14:02:58.649Z,1.10
2023-01-28T14:05:40.228Z,0.60
2023-01-28T14:08:34.928Z,0.90
2023-01-28T14:11:11.585Z,0.93
2023-01-28T14:13:46.911Z,0.88
2023-01-28T14:16:44.376Z,0.80
2023-01-28T14:19:14.188Z,1.08
2023-01-28T14:21:40.928Z,1.02
2023-01-28T14:24:15.862Z,0.77
2023-01-28T14:26:52.382Z,0.80
2023-01-28T14:29:54.135Z,0.80
2023-01-28T14:32:28.580Z,0.70
2023-01-28T14:34:58.793Z,0.70
2023-01-28T14:37:30.392Z,1.35
2023-01-28T14:40:08.336Z,1.02
2023-01-28T14:42:40.373Z,0.95
2023-01-28T14:45:34.032Z,1.25
2023-01-28T14:48:18.760Z,1.00
2023-01-28T14:50:58.100Z,1.00
2023-01-28T14:53:46.395Z,1.40
2023-01-28T14:56:31.821Z,0.80
2023-01-28T14:59:05.345Z,0.90
2023-01-28T15:01:32.206Z,1.00
2023-01-28T15:03:58.993Z,1.05
2023-01-28T15:06:34.179Z,1.10
2023-01-28T15:09:13.430Z,1.33
2023-01-28T15:11:44.531Z,1.60
2023-01-28T15:14:30.306Z,1.55
2023-01-28T15:16:57.748Z,1.27
2023-01-28T15:19:30.141Z,1.65
2023-01-28T15:22:01.805Z,1.27
2023-01-28T15:24:28.775Z,1.50
2023-01-28T15:26:55.225Z,1.58
2023-01-28T15:29:30.743Z,1.40
2023-01-28T15:31:57.496Z,1.42
2023-01-28T15:34:29.971Z,1.80
2023-01-28T15:37:00.656Z,1.38
2023-01-28T15:39:28.863Z,1.88
2023-01-28T15:42:02.037Z,1.30
2023-01-28T15:44:38.544Z,1.55
2023-01-28T15:47:13.808Z,1.92
2023-01-28T15:49:45.631Z,1.88
2023-01-28T15:52:12.189Z,1.88
2023-01-28T15:54:45.287Z,1.90
2023-01-28T15:57:25.104Z,1.75
2023-01-28T15:59:51.556Z,1.75
2023-01-28T16:02:23.507Z,2.30
2023-01-28T16:05:08.246Z,2.30
2023-01-28T16:07:44.773Z,2.42
2023-01-28T16:10:21.652Z,2.50
2023-01-28T16:12:53.007Z,2.30
2023-01-28T16:15:21.744Z,2.33
2023-01-28T16:17:50.887Z,2.50
2023-01-28T16:20:25.623Z,1.55
2023-01-28T16:22:55.455Z,2.63
2023-01-28T16:25:21.817Z,2.60
2023-01-28T16:27:48.657Z,2.50
2023-01-28T16:30:16.229Z,2.70
2023-01-28T16:32:43.163Z,2.42
2023-01-28T16:35:19.246Z,2.80
2023-01-28T16:37:46.959Z,3.10
2023-01-28T16:40:16.276Z,3.15
2023-01-28T16:42:44.607Z,2.85
2023-01-28T16:45:20.344Z,2.63
2023-01-28T16:47:47.034Z,3.20
2023-01-28T16:50:15.009Z,2.70
2023-01-28T16:52:46.260Z,3.15
2023-01-28T16:55:15.741Z,3.30
2023-01-28T16:57:44.164Z,2.42
2023-01-28T17:00:19.697Z,3.17
2023-01-28T17:02:46.888Z,3.10
2023-01-28T17:05:15.134Z,2.90
2023-01-28T17:07:42.495Z,2.90
2023-01-28T17:10:10.172Z,3.10
2023-01-28T17:12:36.747Z,2.55
2023-01-28T17:15:03.852Z,2.75
2023-01-28T17:17:30.293Z,3.10
2023-01-28T17:19:56.869Z,3.40
2023-01-28T17:22:23.288Z,2.70
2023-01-28T17:24:49.730Z,3.17
2023-01-28T17:27:16.200Z,3.10
2023-01-28T17:29:42.745Z,2.70
2023-01-28T17:32:09.216Z,3.58
2023-01-28T17:34:35.687Z,3.25
2023-01-28T17:37:02.118Z,4.32
2023-01-28T17:39:28.603Z,2.83
2023-01-28T17:41:56.130Z,4.30
2023-01-28T17:44:22.703Z,3.70
2023-01-28T17:46:49.213Z,3.40
2023-01-28T17:49:15.666Z,2.70
2023-01-28T17:51:42.162Z,2.17
2023-01-28T17:54:08.693Z,1.75
2023-01-28T17:56:35.206Z,1.50
2023-01-28T17:59:03.558Z,1.60
2023-01-28T18:01:30.800Z,1.40
2023-01-28T18:03:58.493Z,1.10
2023-01-28T18:06:24.999Z,1.33
2023-01-28T18:08:51.491Z,1.48
2023-01-28T18:11:19.338Z,1.40
2023-01-28T18:13:46.089Z,2.67
2023-01-28T18:16:16.122Z,2.10
2023-01-28T18:18:42.856Z,1.73
2023-01-28T18:21:20.674Z,2.15
2023-01-28T18:23:47.112Z,2.25
2023-01-28T18:26:13.929Z,1.77
2023-01-28T18:28:40.334Z,1.88
2023-01-28T18:31:08.112Z,2.00
2023-01-28T18:33:34.872Z,1.80
2023-01-28T18:36:01.290Z,2.15
2023-01-28T18:38:27.675Z,2.53
2023-01-28T18:40:55.749Z,2.25
2023-01-28T18:43:22.544Z,1.88
2023-01-28T18:45:51.807Z,2.10
2023-01-28T18:48:19.055Z,2.25
2023-01-28T18:50:52.867Z,1.83
2023-01-28T18:53:20.259Z,1.63
2023-01-28T18:55:46.777Z,1.77
2023-01-28T18:58:13.206Z,1.77
2023-01-28T19:00:40.331Z,1.92
2023-01-28T19:03:06.717Z,2.33
2023-01-28T19:05:37.333Z,2.92
2023-01-28T19:08:08.585Z,2.30
2023-01-28T19:10:35.529Z,3.38
2023-01-28T19:13:02.003Z,3.92
2023-01-28T19:15:28.453Z,3.40
2023-01-28T19:17:55.117Z,3.30
2023-01-28T19:20:21.466Z,2.50
2023-01-28T19:22:47.935Z,2.10
2023-01-28T19:25:16.146Z,2.40
2023-01-28T19:27:43.187Z,1.90
2023-01-28T19:30:10.218Z,2.17
2023-01-28T19:32:36.653Z,2.35
2023-01-28T19:35:03.339Z,1.90
2023-01-28T19:37:30.427Z,2.17
2023-01-28T19:39:56.777Z,2.35
2023-01-28T19:42:23.308Z,2.28
2023-01-28T19:44:49.742Z,2.40
2023-01-28T19:47:16.171Z,2.40
2023-01-28T19:49:42.581Z,2.10
2023-01-28T19:52:10.787Z,2.53
2023-01-28T19:54:37.259Z,2.05
2023-01-28T19:57:03.654Z,2.20
2023-01-28T19:59:30.115Z,2.05
2023-01-28T20:01:56.616Z,2.20
2023-01-28T20:04:23.105Z,1.88
2023-01-28T20:06:49.793Z,1.88
2023-01-28T20:09:19.656Z,1.90
2023-01-28T20:11:46.187Z,1.92
2023-01-28T20:14:14.842Z,1.40
2023-01-28T20:16:41.336Z,1.48
2023-01-28T20:19:16.641Z,1.40
2023-01-28T20:21:43.881Z,1.33
2023-01-28T20:24:12.734Z,1.40
2023-01-28T20:26:41.074Z,1.35
2023-01-28T20:29:13.270Z,1.50
2023-01-28T20:31:41.454Z,1.30
2023-01-28T20:34:08.628Z,1.40
2023-01-28T20:36:35.172Z,1.52
2023-01-28T20:39:01.570Z,1.58
2023-01-28T20:41:28.289Z,1.50
2023-01-28T20:43:55.269Z,1.65
2023-01-28T20:46:24.565Z,1.40
2023-01-28T20:48:53.536Z,1.35
2023-01-28T20:51:22.738Z,1.40
2023-01-28T20:53:49.674Z,1.13
2023-01-28T20:56:20.487Z,1.27
2023-01-28T20:58:49.247Z,0.95
2023-01-28T21:01:18.007Z,0.85
2023-01-28T21:03:44.597Z,0.70
2023-01-28T21:06:11.216Z,0.98
2023-01-28T21:08:37.678Z,0.70
2023-01-28T21:11:06.250Z,0.80
2023-01-28T21:13:33.037Z,0.68
2023-01-28T21:16:00.166Z,1.08
2023-01-28T21:18:27.216Z,1.10
2023-01-28T21:20:54.946Z,0.90
2023-01-28T21:23:25.415Z,1.10
2023-01-28T21:25:52.462Z,1.13
2023-01-28T21:28:19.944Z,1.77
2023-01-28T21:30:47.113Z,1.45
2023-01-28T21:33:13.593Z,1.80
2023-01-28T21:35:42.157Z,1.83
2023-01-28T21:38:09.420Z,1.67
2023-01-28T21:40:36.665Z,1.73
2023-01-28T21:43:03.879Z,1.40
2023-01-28T21:45:30.540Z,1.20
2023-01-28T21:47:57.041Z,1.10
2023-01-28T21:50:23.672Z,1.33
2023-01-28T21:52:50.690Z,1.10
2023-01-28T21:55:18.248Z,1.05
2023-01-28T21:57:44.671Z,1.15
2023-01-28T22:00:12.861Z,1.40
2023-01-28T22:02:39.772Z,1.40
2023-01-28T22:05:06.547Z,1.25
2023-01-28T22:07:33.064Z,1.30
2023-01-28T22:09:59.476Z,1.40
2023-01-28T22:12:27.466Z,1.33
2023-01-28T22:14:54.029Z,1.83
2023-01-28T22:17:20.582Z,2.10
2023-01-28T22:19:48.222Z,2.50
2023-01-28T22:22:15.897Z,2.10
2023-01-28T22:24:42.398Z,3.25
2023-01-28T22:27:08.962Z,3.28
2023-01-28T22:29:35.410Z,2.65
2023-01-28T22:32:04.608Z,3.65
2023-01-28T22:34:31.119Z,3.08
2023-01-28T22:36:57.628Z,3.03
2023-01-28T22:39:24.197Z,3.60
2023-01-28T22:41:50.690Z,3.35
2023-01-28T22:44:19.526Z,3.22
2023-01-28T22:46:45.992Z,4.07
2023-01-28T22:49:12.572Z,3.35
2023-01-28T22:51:39.026Z,4.43
2023-01-28T22:54:05.513Z,3.78
2023-01-28T22:56:32.252Z,3.20
2023-01-28T22:59:01.376Z,3.90
2023-01-28T23:01:28.140Z,3.65
2023-01-28T23:03:56.301Z,3.80
2023-01-28T23:06:24.505Z,3.30
2023-01-28T23:08:51.715Z,2.90
2023-01-28T23:11:28.132Z,3.10
2023-01-28T23:14:16.182Z,2.90
2023-01-28T23:17:01.269Z,2.90
2023-01-28T23:19:46.188Z,2.55
2023-01-28T23:24:58.871Z,2.65
2023-01-28T23:27:25.677Z,2.90
2023-01-28T23:29:52.055Z,2.30
2023-01-28T23:32:21.359Z,2.40
2023-01-28T23:34:47.847Z,2.40
2023-01-28T23:37:14.797Z,2.20
2023-01-28T23:39:41.682Z,2.13
2023-01-28T23:42:26.006Z,2.40
2023-01-28T23:44:52.436Z,2.67
2023-01-28T23:47:18.876Z,2.92
2023-01-28T23:49:45.809Z,2.35
2023-01-28T23:52:12.234Z,2.55
2023-01-28T23:54:38.611Z,2.20
2023-01-28T23:57:05.383Z,1.92
2023-01-28T23:59:31.981Z,1.98
